Time,TemperatureF,DewpointF,PressureIn,WindDirection,WindDirectionDegrees,WindSpeedMPH,WindSpeedGustMPH,Humidity,HourlyPrecipIn,Conditions,Clouds,dailyrainin,SoftwareType,DateUTC
2013-01-13 00:53:00,74.0,-99.9,30.10,ENE,70,11.0,13.0,-999,-99.99,,,-99.99,,2013-01-13 05:53:00,
2013-01-13 01:53:00,74.0,-99.9,30.08,ENE,70,10.0,13.0,-999,-99.99,,,-99.99,,2013-01-13 06:53:00,
2013-01-13 02:53:00,75.0,-99.9,30.08,East,80,10.0,13.0,-999,-99.99,,,-99.99,,2013-01-13 07:53:00,
2013-01-13 03:53:00,76.0,-99.9,30.08,East,100,15.0,18.0,-999,-99.99,,,-99.99,,2013-01-13 08:53:00,
2013-01-13 04:53:00,76.0,-99.9,30.06,East,100,15.0,18.0,-999,-99.99,,,-99.99,,2013-01-13 09:53:00,
2013-01-13 05:53:00,76.0,-99.9,30.06,East,100,15.0,17.0,-999,-99.99,,,-99.99,,2013-01-13 10:53:00,
2013-01-13 06:53:00,76.0,-99.9,30.08,East,100,14.0,16.0,-999,-99.99,,,-99.99,,2013-01-13 11:53:00,
2013-01-13 07:53:00,75.0,-99.9,30.07,East,100,15.0,18.0,-999,-99.99,,,-99.99,,2013-01-13 12:53:00,
2013-01-13 08:53:00,75.0,-99.9,30.07,East,100,13.0,15.0,-999,-99.99,,,-99.99,,2013-01-13 13:53:00,
2013-01-13 09:53:00,76.0,-99.9,30.08,SE,130,18.0,22.0,-999,-99.99,,,-99.99,,2013-01-13 14:53:00,
2013-01-13 10:53:00,76.0,-99.9,30.09,SE,140,22.0,28.0,-999,-99.99,,,-99.99,,2013-01-13 15:53:00,
2013-01-13 11:53:00,76.0,-99.9,30.09,SE,130,20.0,24.0,-999,-99.99,,,-99.99,,2013-01-13 16:53:00,
2013-01-13 12:53:00,76.0,-99.9,30.11,SE,130,14.0,15.0,-999,-99.99,,,-99.99,,2013-01-13 17:53:00,
2013-01-13 12:54:00,76.0,-99.9,30.11,SE,130,14.0,16.0,-999,-99.99,,,-99.99,,2013-01-13 17:54:00,
2013-01-13 14:53:00,77.0,-99.9,30.10,ESE,110,9.0,10.0,-999,-99.99,,,-99.99,,2013-01-13 19:53:00,
2013-01-13 15:53:00,77.0,-99.9,30.08,East,100,13.0,15.0,-999,-99.99,,,-99.99,,2013-01-13 20:53:00,
2013-01-13 16:53:00,77.0,-99.9,30.10,SE,130,14.0,17.0,-999,-99.99,,,-99.99,,2013-01-13 21:53:00,
2013-01-13 17:53:00,76.0,-99.9,30.10,ESE,120,14.0,16.0,-999,-99.99,,,-99.99,,2013-01-13 22:53:00,
2013-01-13 18:53:00,76.0,-99.9,30.11,SE,140,15.0,17.0,-999,-99.99,,,-99.99,,2013-01-13 23:53:00,
2013-01-13 19:53:00,76.0,-99.9,30.12,ESE,110,14.0,16.0,-999,-99.99,,,-99.99,,2013-01-14 00:53:00,
2013-01-13 20:53:00,76.0,-99.9,30.11,ESE,110,16.0,18.0,-999,-99.99,,,-99.99,,2013-01-14 01:53:00,
2013-01-13 21:53:00,76.0,-99.9,30.10,ESE,120,13.0,15.0,-999,-99.99,,,-99.99,,2013-01-14 02:53:00,
2013-01-13 22:53:00,76.0,-99.9,30.10,SE,140,15.0,17.0,-999,-99.99,,,-99.99,,2013-01-14 03:53:00,
2013-01-13 23:53:00,76.0,-99.9,30.11,SE,130,13.0,15.0,-999,-99.99,,,-99.99,,2013-01-14 04:53:00,